createdAt,value
2023-02-27T00:06:22.712Z,2.00
2023-02-27T00:16:43.958Z,2.10
2023-02-27T00:27:05.261Z,1.92
2023-02-27T00:37:26.889Z,2.13
2023-02-27T00:47:48.350Z,1.95
2023-02-27T00:58:09.939Z,2.83
2023-02-27T01:08:31.648Z,2.45
2023-02-27T01:18:52.899Z,2.20
2023-02-27T01:29:15.759Z,2.30
2023-02-27T01:39:37.129Z,2.42
2023-02-27T01:50:00.480Z,2.42
2023-02-27T02:00:22.323Z,2.20
2023-02-27T02:10:43.754Z,2.05
2023-02-27T02:21:11.768Z,2.28
2023-02-27T02:32:00.884Z,2.20
2023-02-27T02:42:43.736Z,2.00
2023-02-27T02:53:37.054Z,2.08
2023-02-27T03:04:13.905Z,2.10
2023-02-27T03:14:42.540Z,2.28
2023-02-27T03:25:07.819Z,1.77
2023-02-27T03:36:04.651Z,2.33
2023-02-27T03:46:28.376Z,2.00
2023-02-27T03:57:00.639Z,2.28
2023-02-27T04:07:45.063Z,2.35
2023-02-27T04:18:19.290Z,2.25
2023-02-27T04:29:17.481Z,2.28
2023-02-27T04:40:06.555Z,1.88
2023-02-27T04:50:50.424Z,1.70
2023-02-27T05:01:28.983Z,2.03
2023-02-27T05:12:23.349Z,1.90
2023-02-27T05:23:16.904Z,1.88
2023-02-27T05:33:43.931Z,2.40
2023-02-27T05:44:18.106Z,2.08
2023-02-27T05:54:41.987Z,1.90
2023-02-27T06:05:03.349Z,2.22
2023-02-27T06:15:24.771Z,2.42
2023-02-27T06:25:45.886Z,2.42
2023-02-27T06:36:07.224Z,2.08
2023-02-27T06:46:28.695Z,2.35
2023-02-27T06:56:52.049Z,2.58
2023-02-27T07:07:33.940Z,2.40
2023-02-27T07:17:55.208Z,2.30
2023-02-27T07:28:17.458Z,2.80
2023-02-27T07:38:39.180Z,2.47
2023-02-27T07:49:00.499Z,2.40
2023-02-27T07:59:21.602Z,2.55
2023-02-27T08:09:43.096Z,2.35
2023-02-27T08:20:05.769Z,2.42
2023-02-27T08:30:26.899Z,2.75
2023-02-27T08:40:50.695Z,2.55
2023-02-27T08:51:12.238Z,2.60
2023-02-27T09:01:34.858Z,2.20
2023-02-27T09:11:56.055Z,2.22
2023-02-27T09:22:18.688Z,2.03
2023-02-27T09:32:40.003Z,2.00
2023-02-27T09:43:04.480Z,1.95
2023-02-27T09:53:31.828Z,2.30
2023-02-27T10:04:09.390Z,2.08
2023-02-27T10:15:03.256Z,1.80
2023-02-27T10:25:31.689Z,2.00
2023-02-27T10:35:54.084Z,1.83
2023-02-27T10:46:19.383Z,1.70
2023-02-27T10:56:40.682Z,1.92
2023-02-27T11:07:04.919Z,2.42
2023-02-27T11:17:34.599Z,1.80
2023-02-27T11:28:30.934Z,1.70
2023-02-27T11:38:56.195Z,1.65
2023-02-27T11:49:26.448Z,1.67
2023-02-27T12:00:16.203Z,1.40
2023-02-27T12:10:48.986Z,1.95
2023-02-27T12:21:24.912Z,1.95
2023-02-27T12:31:54.716Z,1.67
2023-02-27T12:42:25.482Z,1.67
2023-02-27T12:53:17.036Z,1.40
2023-02-27T13:04:17.717Z,1.30
2023-02-27T13:14:59.322Z,1.17
2023-02-27T13:25:21.156Z,1.25
2023-02-27T13:36:13.463Z,1.60
2023-02-27T13:46:35.237Z,1.42
2023-02-27T13:56:59.306Z,1.30
2023-02-27T14:07:26.728Z,1.38
2023-02-27T14:18:28.852Z,1.48
2023-02-27T14:28:56.060Z,1.33
2023-02-27T14:39:26.123Z,1.73
2023-02-27T14:49:48.114Z,1.17
2023-02-27T15:00:31.038Z,1.40
2023-02-27T15:10:56.194Z,1.27
2023-02-27T15:21:19.979Z,1.35
2023-02-27T15:31:41.466Z,1.30
2023-02-27T15:42:04.521Z,1.20
2023-02-27T15:52:27.353Z,1.20
2023-02-27T16:02:51.654Z,1.40
2023-02-27T16:13:25.341Z,1.20
2023-02-27T16:23:47.389Z,1.35
2023-02-27T16:34:14.524Z,1.42
2023-02-27T16:44:35.997Z,1.50
2023-02-27T16:54:57.045Z,1.80
2023-02-27T17:05:18.982Z,1.38
2023-02-27T17:15:40.058Z,1.35
2023-02-27T17:26:01.717Z,1.30
2023-02-27T17:36:23.685Z,1.60
2023-02-27T17:46:44.650Z,1.65
2023-02-27T17:57:07.026Z,1.50
2023-02-27T18:07:28.140Z,1.20
2023-02-27T18:17:49.452Z,1.65
2023-02-27T18:28:11.323Z,1.65
2023-02-27T18:38:32.523Z,1.60
2023-02-27T18:48:53.968Z,1.40
2023-02-27T18:59:15.086Z,2.13
2023-02-27T19:09:36.368Z,1.85
2023-02-27T19:19:58.204Z,1.80
2023-02-27T19:30:19.420Z,1.60
2023-02-27T19:40:40.857Z,1.95
2023-02-27T19:51:06.132Z,1.80
2023-02-27T20:01:32.814Z,2.05
2023-02-27T20:11:57.010Z,1.87
2023-02-27T20:22:18.224Z,1.90
2023-02-27T20:32:39.483Z,2.45
2023-02-27T20:43:00.896Z,2.22
2023-02-27T20:53:22.194Z,2.30
2023-02-27T21:03:45.843Z,2.60
2023-02-27T21:14:09.889Z,2.58
2023-02-27T21:24:32.446Z,2.65
2023-02-27T21:34:53.624Z,2.75
2023-02-27T21:45:14.798Z,2.80
2023-02-27T21:55:36.144Z,2.88
2023-02-27T22:05:57.723Z,2.80
2023-02-27T22:16:19.466Z,3.10
2023-02-27T22:26:41.815Z,3.13
2023-02-27T22:37:03.165Z,3.33
2023-02-27T22:47:24.810Z,3.35
2023-02-27T22:57:50.236Z,2.88
2023-02-27T23:08:11.966Z,3.58
2023-02-27T23:18:33.549Z,3.80
2023-02-27T23:28:56.143Z,3.30
2023-02-27T23:39:17.532Z,3.03
2023-02-27T23:49:38.784Z,3.63
